Time;durP1;ratioP1;P1;durP2;ratioP2;P2;SDS_P1;SDS_P2;PMS_P1;PMS_P2;Temp;Humidity;BMP_temperature;BMP_pressure;BME280_temperature;BME280_humidity;BME280_pressure;Samples;Min_cycle;Max_cycle;Signal;HPM_P1;HPM_P2
2022/07/07 00:00:47;;;;;;;;;4.00;2.75;;;30.08;97788.25;;;;118982;1189;25345;-65
2022/07/07 00:03:15;;;;;;;;;3.00;3.00;;;30.10;97791.11;;;;118997;1189;24800;-66
2022/07/07 00:05:43;;;;;;;;;2.50;2.50;;;30.10;97788.42;;;;119007;1189;25853;-66
2022/07/07 00:08:11;;;;;;;;;5.00;4.25;;;30.10;97785.33;;;;119011;1190;25064;-65
2022/07/07 00:10:39;;;;;;;;;2.50;2.50;;;30.10;97785.12;;;;118957;1190;25342;-66
2022/07/07 00:13:06;;;;;;;;;5.00;4.00;;;30.11;97788.02;;;;119007;1189;25015;-66
2022/07/07 00:15:34;;;;;;;;;5.50;3.50;;;30.12;97794.48;;;;118992;1189;25063;-66
2022/07/07 00:18:02;;;;;;;;;3.00;3.00;;;30.11;97799.58;;;;118995;1190;24983;-66
2022/07/07 00:20:30;;;;;;;;;5.00;5.00;;;30.11;97798.89;;;;119030;1189;25388;-66
2022/07/07 00:22:58;;;;;;;;;4.00;4.00;;;30.12;97801.07;;;;119022;1190;25370;-66
2022/07/07 00:25:26;;;;;;;;;3.25;3.25;;;30.12;97804.74;;;;119007;1190;25173;-66
2022/07/07 00:27:54;;;;;;;;;3.50;3.50;;;30.12;97806.28;;;;118994;1189;26278;-66
2022/07/07 00:30:22;;;;;;;;;5.00;4.25;;;30.12;97803.02;;;;118981;1190;24990;-67
2022/07/07 00:32:49;;;;;;;;;3.50;2.75;;;30.12;97800.88;;;;119002;1187;25524;-67
2022/07/07 00:35:17;;;;;;;;;3.75;3.75;;;30.14;97803.39;;;;119024;1190;25081;-66
2022/07/07 00:37:45;;;;;;;;;5.33;4.00;;;30.13;97801.75;;;;118996;1189;25448;-67
2022/07/07 00:40:13;;;;;;;;;4.50;4.50;;;30.13;97796.16;;;;119010;1189;25484;-67
2022/07/07 00:42:41;;;;;;;;;6.00;4.00;;;30.12;97794.31;;;;118991;1189;25161;-66
2022/07/07 00:45:09;;;;;;;;;2.00;2.00;;;30.13;97791.12;;;;119045;1189;25989;-66
2022/07/07 00:47:40;;;;;;;;;4.25;4.25;;;30.12;97791.10;;;;119030;1190;25473;-66
2022/07/07 00:50:09;;;;;;;;;3.00;3.00;;;30.12;97792.98;;;;119017;1189;25453;-66
2022/07/07 00:52:37;;;;;;;;;2.25;2.25;;;30.12;97790.35;;;;119010;1189;26037;-66
2022/07/07 00:55:08;;;;;;;;;2.50;2.50;;;30.14;97788.16;;;;119002;1189;24899;-66
2022/07/07 00:57:36;;;;;;;;;3.50;3.50;;;30.15;97785.93;;;;118989;1190;25597;-64
2022/07/07 01:00:08;;;;;;;;;2.50;2.50;;;30.15;97784.85;;;;119015;1189;24775;-65
2022/07/07 01:02:36;;;;;;;;;3.25;3.25;;;30.17;97786.95;;;;119010;1189;25689;-65
2022/07/07 01:05:06;;;;;;;;;5.75;3.50;;;30.17;97790.25;;;;119017;1189;25257;-65
2022/07/07 01:07:36;;;;;;;;;4.75;4.00;;;30.18;97786.19;;;;119010;1189;25886;-65
2022/07/07 01:10:06;;;;;;;;;3.67;3.67;;;30.18;97790.54;;;;119000;1189;24977;-66
2022/07/07 01:12:38;;;;;;;;;3.25;3.00;;;30.19;97786.91;;;;119011;1189;25468;-66
2022/07/07 01:15:08;;;;;;;;;5.00;4.00;;;30.20;97789.89;;;;118970;1190;25733;-66
2022/07/07 01:17:37;;;;;;;;;4.50;3.75;;;30.21;97793.84;;;;118987;1190;24989;-66
2022/07/07 01:20:07;;;;;;;;;4.00;3.50;;;30.19;97792.13;;;;119013;1190;25180;-66
2022/07/07 01:22:36;;;;;;;;;5.00;3.75;;;30.19;97795.91;;;;119012;1189;25825;-66
2022/07/07 01:25:06;;;;;;;;;7.25;4.00;;;30.19;97798.80;;;;118978;1189;26099;-65
2022/07/07 01:27:34;;;;;;;;;3.25;3.25;;;30.20;97795.09;;;;118997;1190;26058;-66
2022/07/07 01:30:02;;;;;;;;;4.50;4.00;;;30.19;97790.30;;;;118983;1190;25255;-65
2022/07/07 01:32:30;;;;;;;;;4.25;4.25;;;30.20;97790.77;;;;118974;1189;25398;-65
2022/07/07 01:34:57;;;;;;;;;5.25;3.25;;;30.19;97792.00;;;;118996;1190;24960;-65
2022/07/07 01:37:25;;;;;;;;;3.50;3.50;;;30.20;97795.52;;;;118999;1190;25505;-68
2022/07/07 01:39:53;;;;;;;;;4.25;4.25;;;30.20;97793.25;;;;118975;1189;25681;-68
2022/07/07 01:42:22;;;;;;;;;5.50;5.50;;;30.21;97789.77;;;;118975;1190;24919;-68
2022/07/07 01:44:51;;;;;;;;;4.75;4.00;;;30.20;97791.66;;;;118982;1187;25084;-69
2022/07/07 01:47:23;;;;;;;;;4.25;3.25;;;30.20;97793.98;;;;118972;1190;24905;-68
2022/07/07 01:49:52;;;;;;;;;4.00;4.00;;;30.21;97796.80;;;;118969;1189;24945;-68
2022/07/07 01:52:20;;;;;;;;;5.75;4.25;;;30.23;97797.52;;;;119019;1189;25352;-68
2022/07/07 01:54:48;;;;;;;;;2.75;2.75;;;30.22;97800.33;;;;118997;1189;25131;-69
2022/07/07 01:57:16;;;;;;;;;4.00;4.00;;;30.20;97801.02;;;;119303;1188;25244;-69
2022/07/07 01:59:44;;;;;;;;;3.00;3.00;;;30.20;97797.74;;;;119356;1187;24995;-68
2022/07/07 02:02:13;;;;;;;;;4.00;4.00;;;30.20;97803.49;;;;118996;1189;25643;-69
2022/07/07 02:04:41;;;;;;;;;3.75;3.25;;;30.20;97797.52;;;;118987;1190;25550;-69
2022/07/07 02:07:09;;;;;;;;;3.75;3.75;;;30.19;97802.15;;;;118981;1190;25188;-69
2022/07/07 02:09:37;;;;;;;;;3.00;3.00;;;30.20;97807.15;;;;118998;1190;24994;-68
2022/07/07 02:12:06;;;;;;;;;3.50;3.50;;;30.19;97802.81;;;;119032;1190;25661;-68
2022/07/07 02:14:34;;;;;;;;;4.00;4.00;;;30.19;97803.00;;;;119039;1189;24977;-69
2022/07/07 02:17:02;;;;;;;;;3.25;3.25;;;30.18;97808.10;;;;119012;1189;25357;-68
2022/07/07 02:19:30;;;;;;;;;4.00;4.00;;;30.19;97813.54;;;;118989;1190;25164;-68
2022/07/07 02:21:57;;;;;;;;;3.50;3.50;;;30.18;97805.13;;;;118978;1190;26276;-69
2022/07/07 02:24:25;;;;;;;;;5.00;5.00;;;30.17;97809.09;;;;118984;1190;25172;-69
2022/07/07 02:26:53;;;;;;;;;4.00;4.00;;;30.17;97813.84;;;;118958;1190;24986;-69
2022/07/07 02:29:21;;;;;;;;;4.25;4.25;;;30.17;97810.91;;;;118995;1189;25354;-68
2022/07/07 02:31:49;;;;;;;;;6.00;4.75;;;30.16;97816.05;;;;119016;1190;25608;-69
2022/07/07 02:34:17;;;;;;;;;3.00;3.00;;;30.16;97816.05;;;;119291;1187;25095;-67
2022/07/07 02:36:45;;;;;;;;;3.00;3.00;;;30.16;97816.97;;;;119355;1187;25180;-69
2022/07/07 02:39:12;;;;;;;;;4.00;4.00;;;30.16;97815.65;;;;119202;1187;26080;-69
2022/07/07 02:41:40;;;;;;;;;7.75;5.25;;;30.16;97817.48;;;;118970;1190;26132;-67
2022/07/07 02:44:08;;;;;;;;;5.25;3.75;;;30.16;97819.21;;;;118988;1189;24995;-68
2022/07/07 02:46:36;;;;;;;;;5.50;5.00;;;30.16;97817.07;;;;118982;1190;24870;-69
2022/07/07 02:49:04;;;;;;;;;4.50;3.50;;;30.15;97818.14;;;;118981;1190;25804;-68
2022/07/07 02:51:32;;;;;;;;;2.75;2.75;;;30.14;97823.30;;;;118973;1190;25167;-69
2022/07/07 02:54:00;;;;;;;;;4.00;4.00;;;30.14;97826.09;;;;118975;1191;25818;-68
2022/07/07 02:56:28;;;;;;;;;5.75;4.25;;;30.14;97825.49;;;;118977;1190;24700;-68
2022/07/07 02:58:56;;;;;;;;;6.25;5.00;;;30.15;97824.75;;;;118994;1189;24940;-68
2022/07/07 03:01:24;;;;;;;;;3.00;3.00;;;30.14;97825.10;;;;118971;1189;25654;-68
2022/07/07 03:03:52;;;;;;;;;4.00;4.00;;;30.14;97822.58;;;;118989;1189;25764;-68
2022/07/07 03:06:21;;;;;;;;;5.00;5.00;;;30.14;97820.83;;;;119022;1190;25472;-67
2022/07/07 03:08:49;;;;;;;;;5.33;4.33;;;30.13;97823.11;;;;119028;1190;25484;-68
2022/07/07 03:11:17;;;;;;;;;5.00;4.00;;;30.13;97825.21;;;;118999;1189;25328;-67
2022/07/07 03:13:45;;;;;;;;;4.50;3.75;;;30.13;97825.75;;;;118996;1189;24946;-68
2022/07/07 03:16:13;;;;;;;;;4.00;3.75;;;30.13;97825.81;;;;119017;1189;25317;-68
2022/07/07 03:18:41;;;;;;;;;5.50;4.75;;;30.14;97823.34;;;;118994;1189;26297;-67
2022/07/07 03:21:09;;;;;;;;;3.75;3.00;;;30.14;97820.48;;;;119001;1189;26264;-71
2022/07/07 03:23:37;;;;;;;;;5.50;4.00;;;30.14;97824.67;;;;118994;1190;25315;-68
2022/07/07 03:26:05;;;;;;;;;6.00;4.00;;;30.13;97824.31;;;;119018;1190;25705;-70
2022/07/07 03:28:33;;;;;;;;;5.25;5.25;;;29.81;97826.38;;;;119038;1190;24799;-70
2022/07/07 03:31:01;;;;;;;;;8.00;7.33;;;29.47;97827.30;;;;118987;1190;25349;-71
2022/07/07 03:33:30;;;;;;;;;5.50;5.00;;;29.30;97830.94;;;;118947;1190;24831;-74
2022/07/07 03:35:58;;;;;;;;;7.75;7.75;;;29.18;97830.90;;;;119361;1188;25554;-73
2022/07/07 03:38:26;;;;;;;;;6.00;6.00;;;28.94;97828.38;;;;119378;1187;25588;-71
2022/07/07 03:40:54;;;;;;;;;5.00;5.00;;;28.72;97825.50;;;;119341;1187;24834;-71
2022/07/07 03:43:31;;;;;;;;;5.00;5.00;;;28.58;97823.55;;;;119003;1190;26008;-76
2022/07/07 03:46:02;;;;;;;;;6.50;5.25;;;28.69;97820.33;;;;119012;1189;24866;-75
2022/07/07 03:48:30;;;;;;;;;5.25;5.00;;;28.65;97817.91;;;;119022;1189;26392;-75
2022/07/07 03:50:58;;;;;;;;;7.00;6.00;;;28.63;97819.64;;;;118991;1190;25591;-75
2022/07/07 03:53:26;;;;;;;;;5.00;3.75;;;28.63;97819.85;;;;118985;1189;24852;-67
2022/07/07 03:55:55;;;;;;;;;15.75;10.25;;;28.65;97821.64;;;;118984;1190;24907;-68
2022/07/07 03:58:26;;;;;;;;;21.50;15.50;;;28.63;97824.02;;;;119007;1189;25909;-71
2022/07/07 04:00:55;;;;;;;;;13.00;11.00;;;28.60;97822.81;;;;118979;1190;25039;-70
2022/07/07 04:03:23;;;;;;;;;14.25;8.75;;;28.63;97823.73;;;;118951;1190;24840;-67
2022/07/07 04:05:51;;;;;;;;;8.25;8.00;;;28.68;97825.02;;;;118939;1189;24924;-65
2022/07/07 04:08:20;;;;;;;;;13.00;7.00;;;28.69;97825.93;;;;119000;1190;24828;-69
2022/07/07 04:10:48;;;;;;;;;12.25;9.75;;;28.71;97827.10;;;;118979;1188;25290;-69
2022/07/07 04:13:16;;;;;;;;;11.25;7.25;;;28.71;97826.48;;;;118938;1190;25643;-70
2022/07/07 04:15:44;;;;;;;;;13.50;7.00;;;28.65;97830.84;;;;118967;1189;24986;-71
2022/07/07 04:18:12;;;;;;;;;11.25;8.00;;;28.70;97830.98;;;;118969;1190;25018;-71
2022/07/07 04:20:40;;;;;;;;;10.25;8.25;;;28.72;97826.40;;;;119001;1188;24983;-69
2022/07/07 04:23:08;;;;;;;;;9.00;8.00;;;28.74;97826.23;;;;118976;1189;25633;-70
2022/07/07 04:25:36;;;;;;;;;10.50;7.50;;;28.74;97826.91;;;;118998;1190;25304;-71
2022/07/07 04:28:04;;;;;;;;;7.50;7.00;;;28.75;97832.15;;;;118977;1190;25535;-71
2022/07/07 04:30:32;;;;;;;;;10.00;8.00;;;28.79;97833.13;;;;118968;1190;25555;-69
2022/07/07 04:33:00;;;;;;;;;7.50;5.50;;;28.76;97834.90;;;;118983;1187;26234;-72
2022/07/07 04:35:28;;;;;;;;;8.00;6.75;;;28.71;97834.46;;;;118992;1189;25350;-70
2022/07/07 04:37:57;;;;;;;;;8.25;5.50;;;28.72;97836.09;;;;118973;1190;25066;-70
2022/07/07 04:40:25;;;;;;;;;6.67;6.67;;;28.70;97834.20;;;;118966;1190;24998;-67
2022/07/07 04:42:53;;;;;;;;;8.00;6.00;;;28.68;97837.19;;;;118959;1189;24990;-67
2022/07/07 04:45:28;;;;;;;;;8.75;7.00;;;28.59;97835.87;;;;118978;1190;25791;-69
2022/07/07 04:47:56;;;;;;;;;7.67;5.33;;;28.58;97835.46;;;;118970;1189;25532;-67
2022/07/07 04:50:24;;;;;;;;;8.25;6.50;;;28.63;97835.30;;;;118987;1190;25035;-70
2022/07/07 04:52:53;;;;;;;;;4.25;4.25;;;28.57;97835.63;;;;118999;1190;25153;-68
2022/07/07 04:55:20;;;;;;;;;6.33;5.33;;;28.59;97833.40;;;;118973;1190;25468;-68
2022/07/07 04:57:49;;;;;;;;;5.50;5.50;;;28.62;97838.13;;;;118978;1190;25599;-67
2022/07/07 05:00:17;;;;;;;;;5.75;5.00;;;28.54;97840.55;;;;119003;1189;25405;-67
2022/07/07 05:02:45;;;;;;;;;9.50;8.50;;;28.52;97837.73;;;;118987;1188;25386;-66
2022/07/07 05:05:13;;;;;;;;;9.25;7.75;;;28.52;97834.78;;;;118986;1190;25352;-66
2022/07/07 05:23:30;;;;;;;;;7.00;6.50;;;29.63;97840.80;;;;117486;1205;23256;-66
2022/07/07 05:25:58;;;;;;;;;5.50;5.50;;;29.68;97835.14;;;;118237;1196;25297;-69
2022/07/07 05:28:26;;;;;;;;;7.50;7.50;;;29.44;97840.36;;;;118217;1196;25636;-68
2022/07/07 05:30:54;;;;;;;;;10.75;7.25;;;29.21;97840.53;;;;118533;1196;24882;-66
2022/07/07 05:33:22;;;;;;;;;9.25;7.25;;;29.42;97841.70;;;;118727;1196;25760;-67
2022/07/07 05:35:50;;;;;;;;;11.50;9.50;;;29.85;97843.05;;;;118274;1196;25187;-66
2022/07/07 05:38:17;;;;;;;;;14.75;8.75;;;29.80;97844.61;;;;118020;1196;25647;-66
2022/07/07 05:40:45;;;;;;;;;11.33;8.33;;;29.56;97846.58;;;;118080;1196;25423;-66
2022/07/07 05:43:13;;;;;;;;;9.00;8.00;;;29.40;97842.79;;;;118112;1196;26631;-66
2022/07/07 05:45:41;;;;;;;;;11.00;6.75;;;29.28;97839.66;;;;118171;1196;25536;-66
2022/07/07 05:48:09;;;;;;;;;10.25;8.50;;;29.16;97841.34;;;;118217;1196;24785;-66
2022/07/07 05:50:37;;;;;;;;;9.00;9.00;;;29.08;97839.50;;;;118224;1196;25474;-66
2022/07/07 05:53:05;;;;;;;;;5.00;5.00;;;29.04;97837.88;;;;118206;1196;26062;-66
2022/07/07 05:55:33;;;;;;;;;5.00;5.00;;;28.96;97838.24;;;;118189;1194;25972;-66
2022/07/07 05:58:01;;;;;;;;;10.50;8.25;;;28.87;97835.95;;;;118194;1196;25208;-66
2022/07/07 06:00:29;;;;;;;;;7.25;5.25;;;28.83;97837.97;;;;118193;1195;25347;-67
2022/07/07 06:02:57;;;;;;;;;9.00;7.75;;;28.78;97834.59;;;;118531;1193;25050;-67
2022/07/07 06:05:26;;;;;;;;;6.75;6.75;;;28.77;97834.32;;;;119026;1190;24957;-66
2022/07/07 06:07:55;;;;;;;;;10.33;7.33;;;28.79;97834.17;;;;118977;1190;25230;-66
2022/07/07 06:10:23;;;;;;;;;6.25;6.25;;;28.76;97833.79;;;;118977;1190;25130;-67
2022/07/07 06:12:51;;;;;;;;;4.00;2.00;;;28.70;97836.48;;;;118971;1189;25971;-66
2022/07/07 06:15:20;;;;;;;;;6.50;6.50;;;28.71;97838.45;;;;118962;1189;25331;-65
2022/07/07 06:17:48;;;;;;;;;9.00;6.25;;;28.71;97834.23;;;;118944;1189;25374;-65
2022/07/07 06:20:35;;;;;;;;;8.25;7.25;;;28.80;97833.30;;;;118940;1189;25351;-65
2022/07/07 06:23:03;;;;;;;;;8.25;8.00;;;28.79;97832.79;;;;118953;1190;25335;-67
2022/07/07 06:25:31;;;;;;;;;9.00;9.00;;;28.78;97837.19;;;;118917;1191;25283;-67
2022/07/07 06:27:59;;;;;;;;;9.25;9.25;;;28.75;97834.09;;;;118929;1191;25050;-66
2022/07/07 06:30:27;;;;;;;;;8.25;8.25;;;28.76;97830.98;;;;118924;1191;25643;-66
2022/07/07 06:32:55;;;;;;;;;12.50;10.50;;;28.76;97828.32;;;;118957;1190;24912;-67
2022/07/07 06:35:24;;;;;;;;;7.25;7.00;;;28.76;97830.46;;;;118922;1190;24970;-67
2022/07/07 06:37:53;;;;;;;;;12.25;9.25;;;28.75;97826.58;;;;118976;1189;25591;-68
2022/07/07 06:40:21;;;;;;;;;10.00;9.33;;;28.78;97825.50;;;;118956;1191;25291;-68
2022/07/07 06:42:49;;;;;;;;;7.75;6.75;;;28.76;97823.69;;;;118948;1191;25490;-67
2022/07/07 06:45:17;;;;;;;;;10.50;9.75;;;28.78;97823.09;;;;118950;1190;25513;-67
2022/07/07 06:47:47;;;;;;;;;12.25;11.00;;;28.82;97821.50;;;;118938;1190;25467;-67
2022/07/07 06:50:24;;;;;;;;;9.00;8.00;;;28.87;97825.20;;;;118922;1190;25765;-68
2022/07/07 06:52:52;;;;;;;;;11.25;8.25;;;28.89;97825.40;;;;118952;1190;25530;-67
2022/07/07 06:55:20;;;;;;;;;9.00;8.00;;;28.89;97825.59;;;;118930;1190;25770;-66
2022/07/07 06:57:48;;;;;;;;;13.33;9.00;;;28.91;97825.52;;;;118954;1191;25706;-66
2022/07/07 07:00:16;;;;;;;;;10.25;8.25;;;28.92;97829.06;;;;118952;1190;24866;-66
2022/07/07 07:02:44;;;;;;;;;10.75;8.50;;;28.94;97830.79;;;;118945;1190;24806;-66
2022/07/07 07:05:13;;;;;;;;;14.75;10.25;;;28.96;97831.97;;;;118927;1191;25312;-65
2022/07/07 07:07:42;;;;;;;;;12.50;9.75;;;28.98;97833.65;;;;118922;1191;25413;-65
2022/07/07 07:10:09;;;;;;;;;15.50;11.50;;;28.99;97834.71;;;;118936;1190;25450;-65
2022/07/07 07:12:38;;;;;;;;;10.75;9.25;;;29.01;97834.77;;;;118928;1190;25724;-65
2022/07/07 07:15:07;;;;;;;;;9.75;8.50;;;29.02;97836.55;;;;118934;1191;24911;-66
2022/07/07 07:17:35;;;;;;;;;9.00;6.50;;;29.04;97838.85;;;;118931;1191;25639;-66
2022/07/07 07:20:05;;;;;;;;;11.75;8.75;;;29.08;97837.35;;;;118927;1190;26117;-65
2022/07/07 07:22:38;;;;;;;;;7.50;7.25;;;29.08;97834.39;;;;118914;1191;26327;-65
2022/07/07 07:25:07;;;;;;;;;7.75;7.50;;;29.10;97837.02;;;;118887;1190;25175;-65
2022/07/07 07:27:35;;;;;;;;;8.75;8.00;;;29.12;97833.88;;;;118926;1191;25182;-65
2022/07/07 07:30:04;;;;;;;;;10.25;9.75;;;29.13;97836.09;;;;118886;1190;24833;-65
2022/07/07 07:32:32;;;;;;;;;9.50;7.25;;;29.13;97840.25;;;;118893;1190;24854;-66
2022/07/07 07:35:00;;;;;;;;;6.75;5.75;;;29.13;97840.16;;;;118886;1190;25620;-67
2022/07/07 07:37:28;;;;;;;;;9.00;6.50;;;29.14;97837.84;;;;118895;1189;25802;-68
2022/07/07 07:39:56;;;;;;;;;8.00;6.25;;;29.15;97832.55;;;;118935;1190;25518;-67
2022/07/07 07:42:24;;;;;;;;;7.00;6.25;;;29.15;97834.86;;;;118924;1191;25397;-67
2022/07/07 07:45:10;;;;;;;;;7.25;7.25;;;29.15;97835.52;;;;118929;1191;25033;-67
2022/07/07 07:47:42;;;;;;;;;8.75;7.25;;;29.18;97834.64;;;;118893;1191;25488;-66
2022/07/07 07:50:18;;;;;;;;;6.25;4.25;;;29.19;97834.18;;;;118938;1190;25287;-66
2022/07/07 07:52:47;;;;;;;;;9.25;8.50;;;29.20;97834.09;;;;118926;1190;25095;-65
2022/07/07 07:55:17;;;;;;;;;10.25;8.50;;;29.21;97833.37;;;;118920;1190;25629;-66
2022/07/07 07:57:45;;;;;;;;;9.25;8.25;;;29.22;97833.52;;;;118916;1189;25275;-66
2022/07/07 08:00:16;;;;;;;;;6.75;6.75;;;29.23;97831.66;;;;118926;1189;25400;-66
2022/07/07 08:02:45;;;;;;;;;8.00;7.50;;;29.24;97830.69;;;;118903;1191;25508;-66
2022/07/07 08:05:14;;;;;;;;;7.50;7.50;;;29.24;97831.67;;;;118923;1191;25414;-66
2022/07/07 08:07:43;;;;;;;;;12.00;7.33;;;29.26;97827.89;;;;118911;1190;24991;-66
2022/07/07 08:10:13;;;;;;;;;4.25;4.25;;;29.27;97826.08;;;;118920;1190;25198;-67
2022/07/07 08:12:42;;;;;;;;;8.50;8.50;;;29.28;97821.95;;;;118933;1191;25576;-67
2022/07/07 08:15:11;;;;;;;;;6.50;6.50;;;29.28;97824.39;;;;118939;1191;25478;-67
2022/07/07 08:17:39;;;;;;;;;5.00;4.50;;;29.29;97823.94;;;;118925;1191;25096;-67
2022/07/07 08:20:08;;;;;;;;;6.50;6.50;;;29.27;97823.23;;;;118915;1190;24963;-67
2022/07/07 08:22:37;;;;;;;;;5.33;5.00;;;29.27;97822.48;;;;118960;1191;25011;-66
2022/07/07 08:25:06;;;;;;;;;3.00;3.00;;;29.26;97819.98;;;;118936;1191;25127;-66
2022/07/07 08:27:34;;;;;;;;;5.00;5.00;;;29.25;97819.73;;;;118945;1190;25516;-67
2022/07/07 08:30:05;;;;;;;;;8.50;5.75;;;29.25;97819.91;;;;118927;1189;25225;-67
2022/07/07 08:32:32;;;;;;;;;5.75;5.50;;;29.25;97820.42;;;;118925;1190;26341;-66
2022/07/07 08:35:00;;;;;;;;;5.00;4.75;;;29.26;97817.95;;;;118943;1190;25384;-66
2022/07/07 08:37:28;;;;;;;;;6.00;5.25;;;29.25;97819.22;;;;118903;1191;26158;-66
2022/07/07 08:39:56;;;;;;;;;4.00;4.00;;;29.24;97817.45;;;;118934;1190;25269;-67
2022/07/07 08:42:24;;;;;;;;;6.00;5.75;;;29.25;97818.10;;;;118947;1191;24810;-67
2022/07/07 08:44:52;;;;;;;;;6.00;5.50;;;29.25;97816.12;;;;118930;1190;24980;-67
2022/07/07 08:47:20;;;;;;;;;5.25;5.00;;;29.26;97814.32;;;;118949;1190;24713;-67
2022/07/07 08:49:48;;;;;;;;;5.75;5.00;;;29.27;97820.48;;;;118910;1191;25585;-66
2022/07/07 08:52:16;;;;;;;;;4.25;4.00;;;29.26;97819.27;;;;118952;1189;25966;-66
2022/07/07 08:54:45;;;;;;;;;6.25;6.25;;;29.27;97817.83;;;;118968;1189;24892;-65
2022/07/07 08:57:13;;;;;;;;;4.00;4.00;;;29.28;97815.13;;;;118947;1190;24886;-66
2022/07/07 08:59:41;;;;;;;;;6.00;4.25;;;29.28;97812.02;;;;118954;1189;25776;-67
2022/07/07 09:02:09;;;;;;;;;5.50;5.50;;;29.29;97813.06;;;;118953;1190;24997;-66
2022/07/07 09:04:37;;;;;;;;;4.00;4.00;;;29.28;97813.15;;;;118966;1188;25269;-67
2022/07/07 09:07:05;;;;;;;;;5.75;5.75;;;29.29;97812.43;;;;118978;1190;25707;-67
2022/07/07 09:09:36;;;;;;;;;4.00;4.00;;;29.28;97810.92;;;;118998;1189;25309;-66
2022/07/07 09:12:05;;;;;;;;;5.00;5.00;;;29.29;97809.23;;;;118979;1190;24975;-67
2022/07/07 09:14:50;;;;;;;;;5.50;5.00;;;29.29;97805.17;;;;118962;1188;24871;-67
2022/07/07 09:17:19;;;;;;;;;4.00;4.00;;;29.36;97803.19;;;;118949;1190;26400;-67
2022/07/07 09:20:14;;;;;;;;;6.75;5.75;;;29.38;97804.77;;;;118961;1189;25753;-67
2022/07/07 09:22:45;;;;;;;;;4.00;4.00;;;29.38;97798.14;;;;118992;1190;24958;-66
2022/07/07 09:25:15;;;;;;;;;4.50;4.50;;;29.38;97799.42;;;;118957;1190;25284;-66
2022/07/07 09:28:02;;;;;;;;;5.50;4.50;;;29.38;97801.64;;;;118964;1190;25720;-67
2022/07/07 09:30:33;;;;;;;;;5.00;5.00;;;29.40;97802.16;;;;118985;1190;25103;-67
2022/07/07 09:33:18;;;;;;;;;5.00;5.00;;;29.41;97802.05;;;;118944;1190;25769;-66
2022/07/07 09:38:35;;;;;;;;;5.00;4.00;;;29.46;97796.60;;;;118887;1191;25280;-66
2022/07/07 09:41:13;;;;;;;;;6.25;5.00;;;29.44;97795.61;;;;118927;1191;26459;-65
2022/07/07 09:43:44;;;;;;;;;4.50;4.50;;;29.48;97790.48;;;;118921;1191;25040;-66
2022/07/07 09:46:22;;;;;;;;;4.00;4.00;;;29.49;97788.05;;;;118929;1190;25464;-67
2022/07/07 09:48:56;;;;;;;;;4.75;4.00;;;29.50;97784.31;;;;118905;1191;25477;-67
2022/07/07 09:51:29;;;;;;;;;7.00;5.00;;;29.53;97785.88;;;;118901;1190;25167;-66
2022/07/07 09:54:06;;;;;;;;;6.00;6.00;;;29.56;97782.36;;;;118929;1191;25261;-66
2022/07/07 09:56:44;;;;;;;;;8.00;8.00;;;29.59;97782.80;;;;118917;1190;25298;-65
2022/07/07 09:59:19;;;;;;;;;5.00;5.00;;;29.62;97781.66;;;;118940;1191;25662;-66
2022/07/07 10:01:49;;;;;;;;;6.00;5.00;;;29.63;97778.11;;;;118952;1190;24932;-66
2022/07/07 10:04:22;;;;;;;;;7.00;5.50;;;29.66;97776.48;;;;118926;1190;25058;-65
2022/07/07 10:06:51;;;;;;;;;7.25;7.25;;;29.67;97777.89;;;;118877;1190;25333;-66
2022/07/07 10:09:21;;;;;;;;;5.75;5.50;;;29.67;97774.95;;;;118867;1191;25747;-66
2022/07/07 10:11:53;;;;;;;;;5.00;5.00;;;29.68;97774.73;;;;118898;1190;25056;-66
2022/07/07 10:14:34;;;;;;;;;4.25;4.25;;;29.70;97776.23;;;;118887;1191;25038;-67
2022/07/07 10:17:03;;;;;;;;;4.00;4.00;;;29.76;97770.38;;;;118865;1190;25512;-67
2022/07/07 10:19:31;;;;;;;;;6.75;6.75;;;29.78;97771.66;;;;118907;1190;25305;-65
2022/07/07 10:22:02;;;;;;;;;5.00;3.75;;;29.77;97773.34;;;;118924;1191;25275;-66
2022/07/07 10:24:35;;;;;;;;;6.50;6.00;;;29.78;97770.70;;;;118918;1189;25526;-67
2022/07/07 10:27:04;;;;;;;;;7.67;5.33;;;29.81;97771.14;;;;118918;1190;25167;-67
2022/07/07 10:29:40;;;;;;;;;4.00;4.00;;;29.83;97766.36;;;;118897;1189;24997;-67
2022/07/07 10:32:11;;;;;;;;;3.75;3.75;;;29.82;97761.44;;;;118929;1191;25663;-66
2022/07/07 10:34:48;;;;;;;;;5.00;4.75;;;29.82;97755.96;;;;118934;1191;25075;-67
2022/07/07 10:37:17;;;;;;;;;4.75;3.50;;;29.85;97751.05;;;;118934;1191;25298;-66
2022/07/07 10:39:53;;;;;;;;;5.00;4.50;;;29.89;97748.84;;;;118903;1191;25488;-66
2022/07/07 10:42:55;;;;;;;;;4.50;4.00;;;29.93;97747.28;;;;118929;1191;25585;-66
2022/07/07 10:45:23;;;;;;;;;5.00;4.75;;;30.05;97743.70;;;;118904;1191;25506;-75
2022/07/07 10:47:51;;;;;;;;;4.50;4.50;;;30.08;97744.85;;;;118929;1189;24709;-72
2022/07/07 11:10:21;;;;;;;;;5.00;5.00;;;30.88;97740.65;;;;117286;1207;23250;-63
2022/07/07 11:12:52;;;;;;;;;7.75;5.75;;;31.10;97741.65;;;;118190;1196;25180;-66
2022/07/07 11:15:30;;;;;;;;;6.75;6.00;;;30.91;97733.34;;;;118159;1196;25315;-67
2022/07/07 11:18:00;;;;;;;;;5.50;5.00;;;30.78;97736.02;;;;118220;1196;25508;-65
2022/07/07 11:20:32;;;;;;;;;4.75;4.75;;;30.64;97729.72;;;;118170;1196;25101;-68
2022/07/07 11:23:11;;;;;;;;;7.75;7.75;;;30.56;97730.61;;;;118193;1196;25489;-69
2022/07/07 11:25:41;;;;;;;;;5.00;3.25;;;30.46;97724.91;;;;118144;1196;25670;-67
2022/07/07 11:28:10;;;;;;;;;4.00;4.00;;;30.43;97725.14;;;;118152;1195;25457;-67
2022/07/07 11:30:40;;;;;;;;;6.00;5.50;;;30.42;97717.81;;;;118516;1192;25589;-66
2022/07/07 11:33:09;;;;;;;;;7.25;7.25;;;30.38;97713.82;;;;118526;1191;24712;-68
2022/07/07 11:35:40;;;;;;;;;6.50;4.75;;;30.35;97716.00;;;;118531;1192;24770;-65
2022/07/07 11:38:11;;;;;;;;;3.50;3.50;;;30.34;97711.04;;;;118533;1193;24842;-65
2022/07/07 11:40:40;;;;;;;;;6.00;6.00;;;30.31;97714.95;;;;118525;1192;25575;-65
2022/07/07 11:43:24;;;;;;;;;5.00;5.00;;;30.30;97711.35;;;;118542;1192;25693;-66
2022/07/07 11:45:53;;;;;;;;;3.75;3.50;;;30.30;97710.05;;;;118534;1193;24740;-68
2022/07/07 11:48:22;;;;;;;;;4.67;4.67;;;30.30;97709.47;;;;118514;1193;25129;-68
2022/07/07 11:50:50;;;;;;;;;4.25;4.25;;;30.33;97706.14;;;;118505;1193;25727;-67
2022/07/07 11:53:21;;;;;;;;;5.25;5.25;;;30.35;97708.65;;;;118529;1192;25655;-74
2022/07/07 11:55:49;;;;;;;;;6.00;5.67;;;30.33;97709.02;;;;118482;1192;25295;-75
2022/07/07 11:58:17;;;;;;;;;4.50;3.75;;;30.37;97707.31;;;;118631;1191;24708;-69
2022/07/07 12:00:45;;;;;;;;;6.00;5.50;;;30.36;97703.44;;;;118529;1192;25261;-65
2022/07/07 12:03:13;;;;;;;;;6.00;6.00;;;30.29;97702.21;;;;118554;1193;24792;-65
2022/07/07 12:05:46;;;;;;;;;4.00;3.50;;;30.26;97700.00;;;;118499;1192;25062;-64
2022/07/07 12:08:14;;;;;;;;;5.00;5.00;;;30.27;97702.28;;;;118529;1192;25555;-65
2022/07/07 12:10:52;;;;;;;;;5.00;5.00;;;30.26;97706.40;;;;118540;1192;24746;-64
2022/07/07 12:13:25;;;;;;;;;6.75;6.75;;;30.30;97704.70;;;;118517;1192;25702;-65
2022/07/07 12:15:54;;;;;;;;;6.50;6.00;;;30.31;97702.63;;;;118549;1193;25377;-64
2022/07/07 12:18:34;;;;;;;;;5.50;5.00;;;30.31;97702.96;;;;118511;1191;24834;-65
2022/07/07 12:21:11;;;;;;;;;6.50;6.50;;;30.38;97699.67;;;;118536;1193;25229;-67
2022/07/07 12:23:44;;;;;;;;;3.75;3.75;;;30.39;97699.61;;;;118496;1192;25172;-67
2022/07/07 12:26:17;;;;;;;;;4.25;4.25;;;30.38;97701.90;;;;118519;1193;24951;-68
2022/07/07 12:28:45;;;;;;;;;5.00;5.00;;;30.35;97696.61;;;;118915;1190;25419;-69
2022/07/07 12:31:18;;;;;;;;;5.00;5.00;;;30.34;97692.66;;;;118917;1189;24897;-69
2022/07/07 12:33:46;;;;;;;;;3.67;3.67;;;30.33;97691.86;;;;118887;1190;25127;-66
2022/07/07 12:36:21;;;;;;;;;7.50;5.25;;;30.32;97699.02;;;;118982;1189;24930;-70
2022/07/07 12:38:57;;;;;;;;;6.00;4.75;;;30.34;97692.27;;;;118910;1189;25459;-68
2022/07/07 12:41:32;;;;;;;;;6.75;5.50;;;30.37;97693.25;;;;118927;1189;25375;-72
2022/07/07 12:44:21;;;;;;;;;6.00;5.00;;;30.38;97684.23;;;;118884;1188;25955;-72
2022/07/07 12:47:08;;;;;;;;;4.75;4.75;;;30.47;97686.46;;;;118938;1188;25613;-71
2022/07/07 12:49:37;;;;;;;;;4.00;4.00;;;30.43;97686.59;;;;118911;1190;25200;-70
2022/07/07 12:52:12;;;;;;;;;5.75;4.50;;;30.41;97682.88;;;;118888;1190;25395;-65
2022/07/07 12:54:40;;;;;;;;;4.00;4.00;;;30.45;97681.55;;;;118944;1189;25388;-64
2022/07/07 12:57:08;;;;;;;;;4.25;4.00;;;30.38;97681.38;;;;118868;1190;26138;-64